sensor_id;sensor_type;location;lat;lon;timestamp;P1;durP1;ratioP1;P2;durP2;ratioP2
51475;SDS011;37554;50.362;7.568;2023-02-28T00:00:21;0.60;;;0.40;;
51475;SDS011;37554;50.362;7.568;2023-02-28T00:02:47;0.93;;;0.57;;
51475;SDS011;37554;50.362;7.568;2023-02-28T00:05:15;0.80;;;0.60;;
51475;SDS011;37554;50.362;7.568;2023-02-28T00:07:42;1.13;;;0.60;;
51475;SDS011;37554;50.362;7.568;2023-02-28T00:10:09;1.75;;;0.60;;
51475;SDS011;37554;50.362;7.568;2023-02-28T00:12:37;1.05;;;0.50;;
51475;SDS011;37554;50.362;7.568;2023-02-28T00:15:06;0.70;;;0.50;;
51475;SDS011;37554;50.362;7.568;2023-02-28T00:17:34;0.88;;;0.60;;
51475;SDS011;37554;50.362;7.568;2023-02-28T00:20:00;0.88;;;0.40;;
51475;SDS011;37554;50.362;7.568;2023-02-28T00:22:29;1.05;;;0.50;;
51475;SDS011;37554;50.362;7.568;2023-02-28T00:24:55;2.25;;;0.63;;
51475;SDS011;37554;50.362;7.568;2023-02-28T00:27:21;1.02;;;0.60;;
51475;SDS011;37554;50.362;7.568;2023-02-28T00:29:46;2.05;;;0.40;;
51475;SDS011;37554;50.362;7.568;2023-02-28T00:32:12;0.98;;;0.52;;
51475;SDS011;37554;50.362;7.568;2023-02-28T00:34:38;3.13;;;0.52;;
51475;SDS011;37554;50.362;7.568;2023-02-28T00:37:07;1.00;;;0.50;;
51475;SDS011;37554;50.362;7.568;2023-02-28T00:39:35;0.77;;;0.50;;
51475;SDS011;37554;50.362;7.568;2023-02-28T00:42:04;1.13;;;0.50;;
51475;SDS011;37554;50.362;7.568;2023-02-28T00:44:30;1.27;;;0.70;;
51475;SDS011;37554;50.362;7.568;2023-02-28T00:46:56;1.25;;;0.60;;
51475;SDS011;37554;50.362;7.568;2023-02-28T00:49:22;0.75;;;0.60;;
51475;SDS011;37554;50.362;7.568;2023-02-28T00:51:48;2.10;;;0.77;;
51475;SDS011;37554;50.362;7.568;2023-02-28T00:54:15;0.93;;;0.52;;
51475;SDS011;37554;50.362;7.568;2023-02-28T00:56:42;0.57;;;0.50;;
51475;SDS011;37554;50.362;7.568;2023-02-28T00:59:08;0.70;;;0.50;;
51475;SDS011;37554;50.362;7.568;2023-02-28T01:01:34;1.17;;;0.60;;
51475;SDS011;37554;50.362;7.568;2023-02-28T01:03:59;2.10;;;0.45;;
51475;SDS011;37554;50.362;7.568;2023-02-28T01:06:25;1.02;;;0.57;;
51475;SDS011;37554;50.362;7.568;2023-02-28T01:08:51;1.13;;;0.63;;
51475;SDS011;37554;50.362;7.568;2023-02-28T01:11:16;1.42;;;0.85;;
51475;SDS011;37554;50.362;7.568;2023-02-28T01:13:43;0.73;;;0.60;;
51475;SDS011;37554;50.362;7.568;2023-02-28T01:16:10;1.25;;;0.70;;
51475;SDS011;37554;50.362;7.568;2023-02-28T01:18:36;1.63;;;0.80;;
51475;SDS011;37554;50.362;7.568;2023-02-28T01:21:03;1.80;;;0.70;;
51475;SDS011;37554;50.362;7.568;2023-02-28T01:23:30;1.77;;;0.60;;
51475;SDS011;37554;50.362;7.568;2023-02-28T01:25:56;0.90;;;0.60;;
51475;SDS011;37554;50.362;7.568;2023-02-28T01:28:21;1.20;;;0.70;;
51475;SDS011;37554;50.362;7.568;2023-02-28T01:30:47;1.00;;;0.65;;
51475;SDS011;37554;50.362;7.568;2023-02-28T01:33:14;1.55;;;0.63;;
51475;SDS011;37554;50.362;7.568;2023-02-28T01:35:39;0.82;;;0.57;;
51475;SDS011;37554;50.362;7.568;2023-02-28T01:38:05;1.70;;;0.80;;
51475;SDS011;37554;50.362;7.568;2023-02-28T01:40:30;1.17;;;0.60;;
51475;SDS011;37554;50.362;7.568;2023-02-28T01:42:56;1.20;;;0.70;;
51475;SDS011;37554;50.362;7.568;2023-02-28T01:47:52;0.80;;;0.52;;
51475;SDS011;37554;50.362;7.568;2023-02-28T01:50:23;0.85;;;0.60;;
51475;SDS011;37554;50.362;7.568;2023-02-28T01:52:53;1.48;;;0.65;;
51475;SDS011;37554;50.362;7.568;2023-02-28T01:55:22;1.38;;;0.70;;
51475;SDS011;37554;50.362;7.568;2023-02-28T01:57:54;0.70;;;0.40;;
51475;SDS011;37554;50.362;7.568;2023-02-28T02:00:22;0.80;;;0.50;;
51475;SDS011;37554;50.362;7.568;2023-02-28T02:02:53;0.95;;;0.60;;
51475;SDS011;37554;50.362;7.568;2023-02-28T02:05:23;0.80;;;0.50;;
51475;SDS011;37554;50.362;7.568;2023-02-28T02:07:55;0.95;;;0.60;;
51475;SDS011;37554;50.362;7.568;2023-02-28T02:10:31;1.92;;;0.80;;
51475;SDS011;37554;50.362;7.568;2023-02-28T02:19:14;0.93;;;0.60;;
51475;SDS011;37554;50.362;7.568;2023-02-28T02:27:20;1.30;;;0.70;;
51475;SDS011;37554;50.362;7.568;2023-02-28T02:43:38;1.58;;;0.80;;
51475;SDS011;37554;50.362;7.568;2023-02-28T02:46:15;1.02;;;0.52;;
51475;SDS011;37554;50.362;7.568;2023-02-28T02:48:51;1.00;;;0.73;;
51475;SDS011;37554;50.362;7.568;2023-02-28T02:51:21;0.80;;;0.50;;
51475;SDS011;37554;50.362;7.568;2023-02-28T02:53:57;2.08;;;0.80;;
51475;SDS011;37554;50.362;7.568;2023-02-28T02:56:31;1.17;;;0.70;;
51475;SDS011;37554;50.362;7.568;2023-02-28T02:59:00;1.40;;;0.60;;
51475;SDS011;37554;50.362;7.568;2023-02-28T03:01:32;1.80;;;0.70;;
51475;SDS011;37554;50.362;7.568;2023-02-28T03:04:01;1.70;;;0.70;;
51475;SDS011;37554;50.362;7.568;2023-02-28T03:06:31;1.17;;;0.60;;
51475;SDS011;37554;50.362;7.568;2023-02-28T03:08:57;1.70;;;0.77;;
51475;SDS011;37554;50.362;7.568;2023-02-28T03:11:25;1.05;;;0.60;;
51475;SDS011;37554;50.362;7.568;2023-02-28T03:25:37;1.27;;;0.60;;
51475;SDS011;37554;50.362;7.568;2023-02-28T03:30:39;0.90;;;0.60;;
51475;SDS011;37554;50.362;7.568;2023-02-28T03:33:40;0.80;;;0.60;;
51475;SDS011;37554;50.362;7.568;2023-02-28T03:36:09;1.65;;;0.47;;
51475;SDS011;37554;50.362;7.568;2023-02-28T03:38:49;1.58;;;0.65;;
51475;SDS011;37554;50.362;7.568;2023-02-28T03:41:25;1.17;;;0.80;;
51475;SDS011;37554;50.362;7.568;2023-02-28T03:44:06;1.98;;;0.82;;
51475;SDS011;37554;50.362;7.568;2023-02-28T03:46:58;1.25;;;0.77;;
51475;SDS011;37554;50.362;7.568;2023-02-28T03:49:32;1.33;;;0.70;;
51475;SDS011;37554;50.362;7.568;2023-02-28T03:52:02;1.30;;;0.68;;
51475;SDS011;37554;50.362;7.568;2023-02-28T03:54:31;0.90;;;0.70;;
51475;SDS011;37554;50.362;7.568;2023-02-28T03:57:36;1.27;;;0.70;;
51475;SDS011;37554;50.362;7.568;2023-02-28T04:00:18;1.23;;;0.68;;
51475;SDS011;37554;50.362;7.568;2023-02-28T04:02:46;2.55;;;0.77;;
51475;SDS011;37554;50.362;7.568;2023-02-28T04:05:17;1.80;;;0.75;;
51475;SDS011;37554;50.362;7.568;2023-02-28T04:07:44;1.08;;;0.63;;
51475;SDS011;37554;50.362;7.568;2023-02-28T04:10:09;1.50;;;0.75;;
51475;SDS011;37554;50.362;7.568;2023-02-28T04:12:36;0.90;;;0.70;;
51475;SDS011;37554;50.362;7.568;2023-02-28T04:15:02;1.20;;;0.70;;
51475;SDS011;37554;50.362;7.568;2023-02-28T04:17:28;1.80;;;0.80;;
51475;SDS011;37554;50.362;7.568;2023-02-28T04:19:54;1.13;;;0.80;;
51475;SDS011;37554;50.362;7.568;2023-02-28T04:22:21;1.10;;;0.65;;
51475;SDS011;37554;50.362;7.568;2023-02-28T04:24:47;1.00;;;0.63;;
51475;SDS011;37554;50.362;7.568;2023-02-28T04:27:12;1.33;;;1.00;;
51475;SDS011;37554;50.362;7.568;2023-02-28T04:29:40;1.48;;;0.70;;
51475;SDS011;37554;50.362;7.568;2023-02-28T04:32:09;1.63;;;0.95;;
51475;SDS011;37554;50.362;7.568;2023-02-28T04:34:35;1.65;;;0.85;;
51475;SDS011;37554;50.362;7.568;2023-02-28T04:37:01;0.95;;;0.70;;
51475;SDS011;37554;50.362;7.568;2023-02-28T04:39:28;2.15;;;0.77;;
51475;SDS011;37554;50.362;7.568;2023-02-28T04:41:54;1.10;;;0.80;;
51475;SDS011;37554;50.362;7.568;2023-02-28T04:44:20;0.75;;;0.60;;
51475;SDS011;37554;50.362;7.568;2023-02-28T04:46:47;0.80;;;0.60;;
51475;SDS011;37554;50.362;7.568;2023-02-28T04:49:14;1.35;;;0.80;;
51475;SDS011;37554;50.362;7.568;2023-02-28T04:51:40;0.93;;;0.55;;
51475;SDS011;37554;50.362;7.568;2023-02-28T04:54:06;1.58;;;0.73;;
51475;SDS011;37554;50.362;7.568;2023-02-28T04:56:32;1.27;;;0.93;;
51475;SDS011;37554;50.362;7.568;2023-02-28T04:58:58;1.48;;;0.80;;
51475;SDS011;37554;50.362;7.568;2023-02-28T05:03:49;1.45;;;0.68;;
51475;SDS011;37554;50.362;7.568;2023-02-28T05:06:16;2.22;;;0.82;;
51475;SDS011;37554;50.362;7.568;2023-02-28T05:08:43;1.05;;;0.75;;
51475;SDS011;37554;50.362;7.568;2023-02-28T05:11:13;0.70;;;0.60;;
51475;SDS011;37554;50.362;7.568;2023-02-28T05:13:43;1.60;;;0.70;;
51475;SDS011;37554;50.362;7.568;2023-02-28T05:16:09;1.63;;;0.75;;
51475;SDS011;37554;50.362;7.568;2023-02-28T05:18:35;1.65;;;0.60;;
51475;SDS011;37554;50.362;7.568;2023-02-28T05:21:01;1.38;;;0.70;;
51475;SDS011;37554;50.362;7.568;2023-02-28T05:23:27;1.13;;;0.65;;
51475;SDS011;37554;50.362;7.568;2023-02-28T05:25:53;1.10;;;0.82;;
51475;SDS011;37554;50.362;7.568;2023-02-28T05:28:19;1.65;;;0.80;;
51475;SDS011;37554;50.362;7.568;2023-02-28T05:30:45;1.52;;;0.98;;
51475;SDS011;37554;50.362;7.568;2023-02-28T05:33:11;2.65;;;0.98;;
51475;SDS011;37554;50.362;7.568;2023-02-28T05:35:38;2.55;;;1.17;;
51475;SDS011;37554;50.362;7.568;2023-02-28T05:38:05;1.75;;;1.10;;
51475;SDS011;37554;50.362;7.568;2023-02-28T05:40:31;1.38;;;0.90;;
51475;SDS011;37554;50.362;7.568;2023-02-28T05:42:56;1.67;;;0.82;;
51475;SDS011;37554;50.362;7.568;2023-02-28T05:45:22;2.30;;;0.80;;
51475;SDS011;37554;50.362;7.568;2023-02-28T05:47:47;2.10;;;0.90;;
51475;SDS011;37554;50.362;7.568;2023-02-28T05:50:13;1.20;;;0.85;;
51475;SDS011;37554;50.362;7.568;2023-02-28T05:52:38;1.85;;;0.95;;
51475;SDS011;37554;50.362;7.568;2023-02-28T05:55:04;1.40;;;1.15;;
51475;SDS011;37554;50.362;7.568;2023-02-28T05:57:30;3.53;;;0.90;;
51475;SDS011;37554;50.362;7.568;2023-02-28T05:59:56;2.03;;;0.90;;
51475;SDS011;37554;50.362;7.568;2023-02-28T06:02:21;1.40;;;1.20;;
51475;SDS011;37554;50.362;7.568;2023-02-28T06:04:47;1.02;;;0.80;;
51475;SDS011;37554;50.362;7.568;2023-02-28T06:07:12;1.58;;;0.90;;
51475;SDS011;37554;50.362;7.568;2023-02-28T06:09:38;1.10;;;1.00;;
51475;SDS011;37554;50.362;7.568;2023-02-28T06:12:04;0.85;;;0.80;;
51475;SDS011;37554;50.362;7.568;2023-02-28T06:14:33;1.98;;;0.90;;
51475;SDS011;37554;50.362;7.568;2023-02-28T06:16:59;2.08;;;1.00;;
51475;SDS011;37554;50.362;7.568;2023-02-28T06:19:25;1.42;;;1.20;;
51475;SDS011;37554;50.362;7.568;2023-02-28T06:21:52;1.55;;;0.80;;
51475;SDS011;37554;50.362;7.568;2023-02-28T06:24:19;2.38;;;1.00;;
51475;SDS011;37554;50.362;7.568;2023-02-28T06:26:45;1.83;;;0.95;;
51475;SDS011;37554;50.362;7.568;2023-02-28T06:29:11;1.20;;;1.00;;
51475;SDS011;37554;50.362;7.568;2023-02-28T06:31:37;1.35;;;1.00;;
51475;SDS011;37554;50.362;7.568;2023-02-28T06:34:05;1.80;;;1.13;;
51475;SDS011;37554;50.362;7.568;2023-02-28T06:36:31;2.70;;;1.20;;
51475;SDS011;37554;50.362;7.568;2023-02-28T06:38:57;3.47;;;1.80;;
51475;SDS011;37554;50.362;7.568;2023-02-28T06:41:26;4.07;;;2.92;;
51475;SDS011;37554;50.362;7.568;2023-02-28T06:43:52;2.95;;;2.53;;
51475;SDS011;37554;50.362;7.568;2023-02-28T06:46:18;4.72;;;2.70;;
51475;SDS011;37554;50.362;7.568;2023-02-28T06:48:44;2.42;;;1.88;;
51475;SDS011;37554;50.362;7.568;2023-02-28T06:51:21;1.88;;;1.70;;
51475;SDS011;37554;50.362;7.568;2023-02-28T06:53:47;2.55;;;1.95;;
51475;SDS011;37554;50.362;7.568;2023-02-28T06:56:13;2.60;;;1.90;;
51475;SDS011;37554;50.362;7.568;2023-02-28T06:58:40;1.73;;;1.50;;
51475;SDS011;37554;50.362;7.568;2023-02-28T07:01:07;2.70;;;1.90;;
51475;SDS011;37554;50.362;7.568;2023-02-28T07:03:34;3.47;;;1.75;;
51475;SDS011;37554;50.362;7.568;2023-02-28T07:06:00;1.23;;;1.13;;
51475;SDS011;37554;50.362;7.568;2023-02-28T07:08:27;3.67;;;1.63;;
51475;SDS011;37554;50.362;7.568;2023-02-28T07:10:57;5.07;;;1.30;;
51475;SDS011;37554;50.362;7.568;2023-02-28T07:13:23;4.22;;;1.17;;
51475;SDS011;37554;50.362;7.568;2023-02-28T07:15:56;2.42;;;1.27;;
51475;SDS011;37554;50.362;7.568;2023-02-28T07:18:26;1.80;;;1.30;;
51475;SDS011;37554;50.362;7.568;2023-02-28T07:20:52;2.50;;;1.52;;
51475;SDS011;37554;50.362;7.568;2023-02-28T07:23:18;3.78;;;1.30;;
51475;SDS011;37554;50.362;7.568;2023-02-28T07:25:44;2.72;;;1.60;;
51475;SDS011;37554;50.362;7.568;2023-02-28T07:28:11;3.80;;;1.58;;
51475;SDS011;37554;50.362;7.568;2023-02-28T07:30:37;3.03;;;1.48;;
51475;SDS011;37554;50.362;7.568;2023-02-28T07:33:03;2.53;;;1.40;;
51475;SDS011;37554;50.362;7.568;2023-02-28T07:35:29;2.70;;;1.50;;
51475;SDS011;37554;50.362;7.568;2023-02-28T07:37:57;2.88;;;1.48;;
51475;SDS011;37554;50.362;7.568;2023-02-28T07:40:23;1.35;;;1.00;;
51475;SDS011;37554;50.362;7.568;2023-02-28T07:42:50;1.60;;;1.42;;
51475;SDS011;37554;50.362;7.568;2023-02-28T07:45:15;1.90;;;1.40;;
51475;SDS011;37554;50.362;7.568;2023-02-28T07:47:42;2.17;;;1.30;;
51475;SDS011;37554;50.362;7.568;2023-02-28T07:50:13;2.15;;;1.48;;
51475;SDS011;37554;50.362;7.568;2023-02-28T07:52:41;3.08;;;1.40;;
51475;SDS011;37554;50.362;7.568;2023-02-28T07:55:10;1.92;;;1.30;;
51475;SDS011;37554;50.362;7.568;2023-02-28T07:57:36;4.13;;;1.60;;
51475;SDS011;37554;50.362;7.568;2023-02-28T08:00:05;3.03;;;1.80;;
51475;SDS011;37554;50.362;7.568;2023-02-28T08:02:37;4.75;;;1.80;;
51475;SDS011;37554;50.362;7.568;2023-02-28T08:05:06;3.38;;;1.95;;
51475;SDS011;37554;50.362;7.568;2023-02-28T08:07:35;2.30;;;1.83;;
51475;SDS011;37554;50.362;7.568;2023-02-28T08:10:01;2.17;;;1.60;;
51475;SDS011;37554;50.362;7.568;2023-02-28T08:12:27;2.13;;;1.80;;
51475;SDS011;37554;50.362;7.568;2023-02-28T08:14:53;4.82;;;1.95;;
51475;SDS011;37554;50.362;7.568;2023-02-28T08:17:21;2.53;;;1.85;;
51475;SDS011;37554;50.362;7.568;2023-02-28T08:19:50;3.67;;;1.85;;
51475;SDS011;37554;50.362;7.568;2023-02-28T08:22:16;3.35;;;1.90;;
51475;SDS011;37554;50.362;7.568;2023-02-28T08:24:44;2.75;;;1.70;;
51475;SDS011;37554;50.362;7.568;2023-02-28T08:27:10;1.95;;;1.48;;
51475;SDS011;37554;50.362;7.568;2023-02-28T08:29:37;2.95;;;1.52;;
51475;SDS011;37554;50.362;7.568;2023-02-28T08:32:03;3.10;;;1.60;;
51475;SDS011;37554;50.362;7.568;2023-02-28T08:34:33;1.90;;;1.45;;
51475;SDS011;37554;50.362;7.568;2023-02-28T08:37:05;5.22;;;1.10;;
51475;SDS011;37554;50.362;7.568;2023-02-28T08:39:34;2.75;;;1.33;;
51475;SDS011;37554;50.362;7.568;2023-02-28T08:42:06;1.55;;;1.10;;
51475;SDS011;37554;50.362;7.568;2023-02-28T08:44:31;6.13;;;1.20;;
51475;SDS011;37554;50.362;7.568;2023-02-28T08:46:57;1.90;;;1.42;;
51475;SDS011;37554;50.362;7.568;2023-02-28T08:49:23;1.58;;;1.02;;
51475;SDS011;37554;50.362;7.568;2023-02-28T08:51:49;2.40;;;1.27;;
51475;SDS011;37554;50.362;7.568;2023-02-28T08:54:14;1.83;;;1.20;;
51475;SDS011;37554;50.362;7.568;2023-02-28T08:56:44;3.15;;;1.67;;
51475;SDS011;37554;50.362;7.568;2023-02-28T08:59:11;1.98;;;1.25;;
51475;SDS011;37554;50.362;7.568;2023-02-28T09:01:39;3.65;;;1.23;;
51475;SDS011;37554;50.362;7.568;2023-02-28T09:04:06;2.45;;;1.42;;
51475;SDS011;37554;50.362;7.568;2023-02-28T09:06:39;1.73;;;1.00;;
51475;SDS011;37554;50.362;7.568;2023-02-28T09:09:07;2.70;;;1.10;;
51475;SDS011;37554;50.362;7.568;2023-02-28T09:11:34;1.90;;;1.20;;
51475;SDS011;37554;50.362;7.568;2023-02-28T09:14:00;2.63;;;1.25;;
51475;SDS011;37554;50.362;7.568;2023-02-28T09:16:28;1.23;;;0.90;;
51475;SDS011;37554;50.362;7.568;2023-02-28T09:18:58;1.50;;;1.05;;
51475;SDS011;37554;50.362;7.568;2023-02-28T09:21:27;1.30;;;0.88;;
51475;SDS011;37554;50.362;7.568;2023-02-28T09:23:53;1.00;;;0.90;;
51475;SDS011;37554;50.362;7.568;2023-02-28T09:26:26;1.48;;;0.90;;
51475;SDS011;37554;50.362;7.568;2023-02-28T09:28:53;2.80;;;0.85;;
51475;SDS011;37554;50.362;7.568;2023-02-28T09:31:21;1.23;;;1.00;;
51475;SDS011;37554;50.362;7.568;2023-02-28T09:33:49;3.38;;;1.00;;
51475;SDS011;37554;50.362;7.568;2023-02-28T09:36:17;1.60;;;1.00;;
51475;SDS011;37554;50.362;7.568;2023-02-28T09:38:43;1.63;;;0.70;;
51475;SDS011;37554;50.362;7.568;2023-02-28T09:41:21;2.88;;;0.90;;
51475;SDS011;37554;50.362;7.568;2023-02-28T09:43:52;1.42;;;0.90;;
51475;SDS011;37554;50.362;7.568;2023-02-28T09:49:46;1.98;;;0.80;;
51475;SDS011;37554;50.362;7.568;2023-02-28T09:52:19;1.73;;;0.77;;
51475;SDS011;37554;50.362;7.568;2023-02-28T09:54:49;2.05;;;0.90;;
51475;SDS011;37554;50.362;7.568;2023-02-28T09:57:17;1.35;;;0.70;;
51475;SDS011;37554;50.362;7.568;2023-02-28T10:00:06;2.35;;;0.90;;
51475;SDS011;37554;50.362;7.568;2023-02-28T10:05:12;0.90;;;0.60;;
51475;SDS011;37554;50.362;7.568;2023-02-28T10:13:04;1.85;;;0.75;;
51475;SDS011;37554;50.362;7.568;2023-02-28T10:15:40;0.88;;;0.60;;
51475;SDS011;37554;50.362;7.568;2023-02-28T10:18:19;1.33;;;0.88;;
51475;SDS011;37554;50.362;7.568;2023-02-28T10:20:49;1.40;;;0.80;;
51475;SDS011;37554;50.362;7.568;2023-02-28T10:23:25;1.23;;;0.80;;
51475;SDS011;37554;50.362;7.568;2023-02-28T10:26:09;1.05;;;0.80;;
51475;SDS011;37554;50.362;7.568;2023-02-28T10:28:37;1.10;;;0.70;;
51475;SDS011;37554;50.362;7.568;2023-02-28T10:31:04;1.55;;;0.82;;
51475;SDS011;37554;50.362;7.568;2023-02-28T10:33:31;1.85;;;1.00;;
51475;SDS011;37554;50.362;7.568;2023-02-28T10:35:59;1.45;;;0.90;;
51475;SDS011;37554;50.362;7.568;2023-02-28T10:38:31;0.88;;;0.77;;
51475;SDS011;37554;50.362;7.568;2023-02-28T10:43:31;1.45;;;0.80;;
51475;SDS011;37554;50.362;7.568;2023-02-28T10:51:05;1.35;;;1.10;;
51475;SDS011;37554;50.362;7.568;2023-02-28T10:53:35;2.47;;;1.20;;
51475;SDS011;37554;50.362;7.568;2023-02-28T11:01:47;2.42;;;1.60;;
51475;SDS011;37554;50.362;7.568;2023-02-28T11:07:16;2.13;;;1.40;;
51475;SDS011;37554;50.362;7.568;2023-02-28T11:09:50;3.03;;;1.50;;
51475;SDS011;37554;50.362;7.568;2023-02-28T11:12:22;3.13;;;1.30;;
51475;SDS011;37554;50.362;7.568;2023-02-28T11:14:57;1.52;;;1.33;;
51475;SDS011;37554;50.362;7.568;2023-02-28T11:17:31;1.98;;;1.05;;
51475;SDS011;37554;50.362;7.568;2023-02-28T11:20:01;1.50;;;1.10;;
51475;SDS011;37554;50.362;7.568;2023-02-28T11:22:32;1.48;;;1.08;;
51475;SDS011;37554;50.362;7.568;2023-02-28T11:25:06;2.95;;;1.10;;
51475;SDS011;37554;50.362;7.568;2023-02-28T11:27:43;1.42;;;1.00;;
51475;SDS011;37554;50.362;7.568;2023-02-28T11:33:00;1.27;;;1.10;;
51475;SDS011;37554;50.362;7.568;2023-02-28T11:35:43;3.03;;;1.10;;
51475;SDS011;37554;50.362;7.568;2023-02-28T11:38:12;2.92;;;1.15;;
51475;SDS011;37554;50.362;7.568;2023-02-28T11:48:58;1.40;;;1.00;;
51475;SDS011;37554;50.362;7.568;2023-02-28T11:51:47;3.28;;;1.20;;
51475;SDS011;37554;50.362;7.568;2023-02-28T11:56:55;1.52;;;1.00;;
51475;SDS011;37554;50.362;7.568;2023-02-28T11:59:48;2.20;;;1.05;;
51475;SDS011;37554;50.362;7.568;2023-02-28T12:13:00;1.10;;;0.85;;
51475;SDS011;37554;50.362;7.568;2023-02-28T12:15:53;1.30;;;0.90;;
51475;SDS011;37554;50.362;7.568;2023-02-28T12:18:34;1.35;;;1.00;;
51475;SDS011;37554;50.362;7.568;2023-02-28T12:24:00;1.75;;;1.35;;
51475;SDS011;37554;50.362;7.568;2023-02-28T12:26:45;3.88;;;1.10;;
51475;SDS011;37554;50.362;7.568;2023-02-28T12:29:23;1.40;;;1.00;;
51475;SDS011;37554;50.362;7.568;2023-02-28T12:32:04;3.22;;;1.00;;
51475;SDS011;37554;50.362;7.568;2023-02-28T12:34:42;1.15;;;1.02;;
51475;SDS011;37554;50.362;7.568;2023-02-28T12:37:14;0.90;;;0.75;;
51475;SDS011;37554;50.362;7.568;2023-02-28T12:39:48;2.92;;;1.00;;
51475;SDS011;37554;50.362;7.568;2023-02-28T12:42:41;1.95;;;0.93;;
51475;SDS011;37554;50.362;7.568;2023-02-28T12:45:10;1.10;;;0.90;;
51475;SDS011;37554;50.362;7.568;2023-02-28T12:47:38;1.10;;;0.80;;
51475;SDS011;37554;50.362;7.568;2023-02-28T12:50:07;1.05;;;0.88;;
51475;SDS011;37554;50.362;7.568;2023-02-28T12:52:48;1.75;;;0.90;;
51475;SDS011;37554;50.362;7.568;2023-02-28T12:55:27;1.30;;;0.82;;
51475;SDS011;37554;50.362;7.568;2023-02-28T12:58:12;1.25;;;0.90;;
51475;SDS011;37554;50.362;7.568;2023-02-28T13:04:01;1.73;;;0.80;;
51475;SDS011;37554;50.362;7.568;2023-02-28T13:09:27;1.30;;;0.85;;
51475;SDS011;37554;50.362;7.568;2023-02-28T13:11:54;0.90;;;0.50;;
51475;SDS011;37554;50.362;7.568;2023-02-28T13:14:25;1.10;;;0.80;;
51475;SDS011;37554;50.362;7.568;2023-02-28T13:19:57;1.77;;;0.82;;
51475;SDS011;37554;50.362;7.568;2023-02-28T13:27:48;1.40;;;1.30;;
51475;SDS011;37554;50.362;7.568;2023-02-28T13:33:33;1.40;;;1.30;;
51475;SDS011;37554;50.362;7.568;2023-02-28T13:36:30;3.03;;;1.13;;
51475;SDS011;37554;50.362;7.568;2023-02-28T13:38:57;2.03;;;1.10;;
51475;SDS011;37554;50.362;7.568;2023-02-28T13:44:07;1.10;;;1.00;;
51475;SDS011;37554;50.362;7.568;2023-02-28T13:46:36;1.25;;;0.90;;
51475;SDS011;37554;50.362;7.568;2023-02-28T13:49:32;1.23;;;1.00;;
51475;SDS011;37554;50.362;7.568;2023-02-28T13:52:10;3.00;;;1.02;;
51475;SDS011;37554;50.362;7.568;2023-02-28T14:05:38;0.85;;;0.70;;
51475;SDS011;37554;50.362;7.568;2023-02-28T14:08:08;1.08;;;0.95;;
51475;SDS011;37554;50.362;7.568;2023-02-28T14:10:45;1.20;;;0.75;;
51475;SDS011;37554;50.362;7.568;2023-02-28T14:13:36;0.63;;;0.63;;
51475;SDS011;37554;50.362;7.568;2023-02-28T14:16:13;1.27;;;0.70;;
51475;SDS011;37554;50.362;7.568;2023-02-28T14:21:38;1.05;;;0.90;;
51475;SDS011;37554;50.362;7.568;2023-02-28T14:27:11;1.00;;;0.82;;
51475;SDS011;37554;50.362;7.568;2023-02-28T14:32:25;4.00;;;1.20;;
51475;SDS011;37554;50.362;7.568;2023-02-28T14:37:47;0.80;;;0.77;;
51475;SDS011;37554;50.362;7.568;2023-02-28T14:40:17;1.73;;;0.80;;
51475;SDS011;37554;50.362;7.568;2023-02-28T14:42:56;0.73;;;0.70;;
51475;SDS011;37554;50.362;7.568;2023-02-28T14:45:26;1.73;;;0.82;;
51475;SDS011;37554;50.362;7.568;2023-02-28T14:47:57;1.15;;;0.90;;
51475;SDS011;37554;50.362;7.568;2023-02-28T14:50:29;1.90;;;0.88;;
51475;SDS011;37554;50.362;7.568;2023-02-28T14:52:56;1.35;;;0.90;;
51475;SDS011;37554;50.362;7.568;2023-02-28T14:55:28;1.02;;;0.75;;
51475;SDS011;37554;50.362;7.568;2023-02-28T14:58:00;1.25;;;0.90;;
51475;SDS011;37554;50.362;7.568;2023-02-28T15:00:53;1.83;;;1.00;;
51475;SDS011;37554;50.362;7.568;2023-02-28T15:03:20;2.70;;;0.75;;
51475;SDS011;37554;50.362;7.568;2023-02-28T15:05:54;1.77;;;1.05;;
51475;SDS011;37554;50.362;7.568;2023-02-28T15:08:24;1.27;;;0.65;;
51475;SDS011;37554;50.362;7.568;2023-02-28T15:13:23;1.63;;;1.10;;
51475;SDS011;37554;50.362;7.568;2023-02-28T15:15:57;3.92;;;1.08;;
51475;SDS011;37554;50.362;7.568;2023-02-28T15:21:05;1.10;;;0.88;;
51475;SDS011;37554;50.362;7.568;2023-02-28T15:23:34;1.20;;;0.82;;
51475;SDS011;37554;50.362;7.568;2023-02-28T15:26:02;1.60;;;0.85;;
51475;SDS011;37554;50.362;7.568;2023-02-28T15:28:28;1.45;;;0.93;;
51475;SDS011;37554;50.362;7.568;2023-02-28T15:30:56;1.50;;;0.95;;
51475;SDS011;37554;50.362;7.568;2023-02-28T15:33:27;1.40;;;0.88;;
51475;SDS011;37554;50.362;7.568;2023-02-28T15:36:03;2.10;;;1.10;;
51475;SDS011;37554;50.362;7.568;2023-02-28T15:38:40;2.40;;;0.98;;
51475;SDS011;37554;50.362;7.568;2023-02-28T15:41:20;1.20;;;0.85;;
51475;SDS011;37554;50.362;7.568;2023-02-28T15:43:48;1.70;;;0.90;;
51475;SDS011;37554;50.362;7.568;2023-02-28T15:46:14;1.42;;;0.95;;
51475;SDS011;37554;50.362;7.568;2023-02-28T15:48:53;1.95;;;0.82;;
51475;SDS011;37554;50.362;7.568;2023-02-28T15:51:21;2.67;;;1.02;;
51475;SDS011;37554;50.362;7.568;2023-02-28T15:54:08;1.83;;;1.00;;
51475;SDS011;37554;50.362;7.568;2023-02-28T15:56:43;1.50;;;1.10;;
51475;SDS011;37554;50.362;7.568;2023-02-28T15:59:18;1.00;;;0.80;;
51475;SDS011;37554;50.362;7.568;2023-02-28T16:02:01;2.08;;;0.90;;
51475;SDS011;37554;50.362;7.568;2023-02-28T16:04:28;3.08;;;1.00;;
51475;SDS011;37554;50.362;7.568;2023-02-28T16:09:24;1.60;;;1.00;;
51475;SDS011;37554;50.362;7.568;2023-02-28T16:11:53;1.20;;;0.73;;
51475;SDS011;37554;50.362;7.568;2023-02-28T16:14:22;3.90;;;0.82;;
51475;SDS011;37554;50.362;7.568;2023-02-28T16:16:52;0.85;;;0.82;;
51475;SDS011;37554;50.362;7.568;2023-02-28T16:19:20;1.27;;;0.90;;
51475;SDS011;37554;50.362;7.568;2023-02-28T16:21:46;3.50;;;0.88;;
51475;SDS011;37554;50.362;7.568;2023-02-28T16:24:12;1.55;;;1.08;;
51475;SDS011;37554;50.362;7.568;2023-02-28T16:26:39;2.10;;;0.90;;
51475;SDS011;37554;50.362;7.568;2023-02-28T16:29:06;2.10;;;0.88;;
51475;SDS011;37554;50.362;7.568;2023-02-28T16:31:33;1.50;;;0.90;;
51475;SDS011;37554;50.362;7.568;2023-02-28T16:34:01;1.33;;;0.88;;
51475;SDS011;37554;50.362;7.568;2023-02-28T16:36:28;1.00;;;0.73;;
51475;SDS011;37554;50.362;7.568;2023-02-28T16:38:54;1.40;;;0.80;;
51475;SDS011;37554;50.362;7.568;2023-02-28T16:41:22;2.53;;;0.82;;
51475;SDS011;37554;50.362;7.568;2023-02-28T16:43:51;1.05;;;0.95;;
51475;SDS011;37554;50.362;7.568;2023-02-28T16:46:19;1.60;;;0.77;;
51475;SDS011;37554;50.362;7.568;2023-02-28T16:48:46;1.23;;;0.77;;
51475;SDS011;37554;50.362;7.568;2023-02-28T16:51:16;0.60;;;0.60;;
51475;SDS011;37554;50.362;7.568;2023-02-28T16:53:42;0.90;;;0.60;;
51475;SDS011;37554;50.362;7.568;2023-02-28T16:56:12;1.10;;;0.77;;
51475;SDS011;37554;50.362;7.568;2023-02-28T16:58:41;1.30;;;0.60;;
51475;SDS011;37554;50.362;7.568;2023-02-28T17:01:07;0.70;;;0.70;;
51475;SDS011;37554;50.362;7.568;2023-02-28T17:03:33;1.80;;;0.82;;
51475;SDS011;37554;50.362;7.568;2023-02-28T17:06:01;0.88;;;0.77;;
51475;SDS011;37554;50.362;7.568;2023-02-28T17:08:27;0.93;;;0.77;;
51475;SDS011;37554;50.362;7.568;2023-02-28T17:10:54;1.00;;;0.73;;
51475;SDS011;37554;50.362;7.568;2023-02-28T17:13:20;1.02;;;0.70;;
51475;SDS011;37554;50.362;7.568;2023-02-28T17:15:46;1.15;;;0.70;;
51475;SDS011;37554;50.362;7.568;2023-02-28T17:18:16;1.17;;;0.65;;
51475;SDS011;37554;50.362;7.568;2023-02-28T17:20:46;1.20;;;0.50;;
51475;SDS011;37554;50.362;7.568;2023-02-28T17:23:13;3.25;;;0.90;;
51475;SDS011;37554;50.362;7.568;2023-02-28T17:25:39;1.10;;;0.70;;
51475;SDS011;37554;50.362;7.568;2023-02-28T17:28:04;1.35;;;1.00;;
51475;SDS011;37554;50.362;7.568;2023-02-28T17:30:31;1.30;;;1.05;;
51475;SDS011;37554;50.362;7.568;2023-02-28T17:32:58;2.25;;;0.80;;